Decoded Metar for EGUN (MILDENHALL in ENGLAND) (IATA:MHZ) | Meteo·Mobile Aviation Weather
aviador You're here:

EGUN Decoded Metar

MILDENHALL in ENGLAND
Report Time2018-10-15 18:56:00
UTC Time2018-10-15 19:28:31
Flight Rules ifr IFR
Wind060° at 04 kt
W.Decomp.*RWY 11: 2.6 kt HW 3 kt LCW
W.Rank060° ranks 33
Current wind is below 060° avg. (6.2)
Visibility9999 m
Phenomena:Light Rain
Clouds:Overcast 006 Hf
Ceiling600 ft
Temp13°C (ISA -2)
Dew Point13°C (100% RH)
AAT12.5°C
QNH1014 hPa
Density Alt-30 ft
Elevation33 ft
Report Wrong Elevation
Raw Report
EGUN 151856Z AUTO 06004KT 9999 -RA OVC006 13/13 A2994 RMK AO2
RAE17RAB39 SLP142 P0000 T01270127 .=

Extra information for EGUN:More info

Metar Taf Metar & Taf Last 4 Metars F.Rules Stats Wind Profile Meteogram Temp Stats Airport Information Weather charts Add Link Nearby VenuesMetar ALERT Operation Metar Decoded Social comments